Time;durP1;ratioP1;P1;durP2;ratioP2;P2;SDS_P1;SDS_P2;PMS_P1;PMS_P2;Temp;Humidity;BMP_temperature;BMP_pressure;BME280_temperature;BME280_humidity;BME280_pressure;Samples;Min_cycle;Max_cycle;Signal;HPM_P1;HPM_P2
2022/08/05 00:00:48;;;;;;;14.50;7.20;;;;;;;18.64;100.00;101733.09;7386099;19;20023;-78
2022/08/05 00:03:19;;;;;;;14.32;7.32;;;;;;;18.55;100.00;101724.25;7390472;19;20010;-77
2022/08/05 00:05:50;;;;;;;14.52;7.05;;;;;;;18.57;100.00;101730.44;7393361;19;20010;-77
2022/08/05 00:08:43;;;;;;;15.65;7.38;;;;;;;18.51;100.00;101727.81;7390853;19;20007;-78
2022/08/05 00:11:20;;;;;;;13.40;7.38;;;;;;;18.50;100.00;101730.47;7394345;19;20010;-78
2022/08/05 00:14:04;;;;;;;15.57;7.93;;;;;;;18.52;100.00;101734.00;7392272;19;20006;-78
2022/08/05 00:16:50;;;;;;;16.13;7.20;;;;;;;18.53;100.00;101726.03;7370002;19;20034;-73
2022/08/05 00:19:23;;;;;;;17.95;7.60;;;;;;;18.52;100.00;101728.69;7376275;19;20042;-73
2022/08/05 00:22:15;;;;;;;13.18;7.25;;;;;;;18.44;100.00;101728.72;7374417;19;20027;-71
2022/08/05 00:24:50;;;;;;;16.90;6.90;;;;;;;18.44;100.00;101734.03;7373888;19;20495;-73
2022/08/05 00:27:24;;;;;;;14.50;6.57;;;;;;;18.45;100.00;101738.47;7373156;19;20010;-72
2022/08/05 00:30:06;;;;;;;14.43;7.18;;;;;;;18.35;100.00;101734.09;7377001;19;20057;-72
2022/08/05 00:32:41;;;;;;;12.35;6.50;;;;;;;18.33;100.00;101749.13;7371261;19;20048;-73
2022/08/05 00:35:11;;;;;;;12.57;6.97;;;;;;;18.30;100.00;101752.69;7371274;19;20010;-71
2022/08/05 00:37:42;;;;;;;16.45;7.05;;;;;;;18.21;100.00;101749.19;7374988;19;20034;-72
2022/08/05 00:40:28;;;;;;;14.35;7.13;;;;;;;18.15;100.00;101744.78;7372825;19;20082;-72
2022/08/05 00:43:00;;;;;;;14.65;7.20;;;;;;;18.12;100.00;101743.91;7378312;19;20373;-79
2022/08/05 00:45:31;;;;;;;12.48;6.57;;;;;;;18.10;100.00;101748.34;7389347;19;20095;-72
2022/08/05 00:48:14;;;;;;;13.10;7.30;;;;;;;18.08;100.00;101747.47;7374143;19;20018;-71
2022/08/05 00:50:45;;;;;;;15.63;6.75;;;;;;;18.13;100.00;101741.25;7370914;19;20260;-73
2022/08/05 00:53:16;;;;;;;16.33;6.75;;;;;;;18.13;100.00;101740.38;7368810;19;20155;-72
2022/08/05 00:56:10;;;;;;;18.15;6.95;;;;;;;18.10;100.00;101751.00;7376987;19;20021;-73
2022/08/05 00:58:40;;;;;;;12.75;6.97;;;;;;;18.10;100.00;101748.34;7374430;19;20011;-72
2022/08/05 01:01:14;;;;;;;18.85;6.93;;;;;;;18.11;100.00;101748.34;7374082;19;20006;-72
2022/08/05 01:04:08;;;;;;;13.20;6.72;;;;;;;18.13;100.00;101750.97;7398693;19;20011;-79
2022/08/05 01:06:47;;;;;;;15.45;7.43;;;;;;;18.11;100.00;101750.09;7392991;19;20019;-79
2022/08/05 01:09:21;;;;;;;15.35;7.72;;;;;;;18.06;100.00;101749.25;7391060;19;20011;-78
2022/08/05 01:11:57;;;;;;;18.60;8.00;;;;;;;18.05;100.00;101756.31;7394498;19;20011;-78
2022/08/05 01:14:43;;;;;;;14.95;6.45;;;;;;;18.03;100.00;101757.22;7396550;19;20011;-78
2022/08/05 01:17:21;;;;;;;13.60;5.88;;;;;;;18.11;100.00;101771.34;7397720;19;20010;-77
2022/08/05 01:19:57;;;;;;;13.77;6.50;;;;;;;18.10;100.00;101774.88;7389741;19;20011;-79
2022/08/05 01:22:44;;;;;;;15.82;7.03;;;;;;;18.12;100.00;101773.13;7387510;19;20003;-79
2022/08/05 01:25:39;;;;;;;14.88;6.70;;;;;;;18.08;100.00;101774.88;7391584;19;20014;-78
2022/08/05 01:28:34;;;;;;;15.43;6.22;;;;;;;18.04;100.00;101785.53;7393751;19;20010;-79
2022/08/05 01:31:11;;;;;;;11.48;5.57;;;;;;;18.01;100.00;101791.72;7397194;19;20078;-77
2022/08/05 01:33:48;;;;;;;12.88;6.05;;;;;;;17.97;100.00;101796.16;7394341;19;20010;-79
2022/08/05 01:36:24;;;;;;;17.52;6.72;;;;;;;17.97;100.00;101806.75;7390202;19;20076;-79
2022/08/05 01:38:58;;;;;;;17.83;5.88;;;;;;;17.98;100.00;101794.38;7388447;19;20003;-77
2022/08/05 01:41:34;;;;;;;10.13;5.37;;;;;;;18.01;100.00;101798.81;7390862;19;20018;-79
2022/08/05 01:44:12;;;;;;;11.82;5.75;;;;;;;17.96;100.00;101791.72;7393053;19;20010;-78
2022/08/05 01:46:45;;;;;;;13.45;5.78;;;;;;;17.98;100.00;101789.06;7394340;19;20014;-79
2022/08/05 01:49:22;;;;;;;11.98;6.55;;;;;;;17.92;100.00;101794.38;7391969;19;20014;-78
2022/08/05 01:51:59;;;;;;;11.07;6.32;;;;;;;17.88;100.00;101787.31;7390192;19;20014;-77
2022/08/05 01:54:39;;;;;;;13.25;6.05;;;;;;;17.83;100.00;101787.31;7388048;19;20011;-78
2022/08/05 01:57:21;;;;;;;14.73;6.38;;;;;;;17.81;100.00;101770.53;7394110;19;20027;-79
2022/08/05 02:00:15;;;;;;;14.18;6.03;;;;;;;17.87;100.00;101765.22;7392086;19;20423;-77
2022/08/05 02:02:47;;;;;;;;;;;;;;;17.87;100.00;101767.88;7392162;19;20032;-77
2022/08/05 02:05:29;;;;;;;10.85;4.88;;;;;;;17.86;100.00;101751.94;7388390;19;20052;-79
2022/08/05 02:08:03;;;;;;;11.30;5.32;;;;;;;17.83;100.00;101751.94;7387493;19;20015;-78
2022/08/05 02:10:41;;;;;;;8.50;4.82;;;;;;;17.79;100.00;101755.50;7391297;19;20527;-76
2022/08/05 02:13:16;;;;;;;11.48;5.28;;;;;;;17.76;100.00;101745.78;7392028;19;20436;-80
2022/08/05 02:15:57;;;;;;;10.13;5.22;;;;;;;17.73;100.00;101750.19;7390543;19;20022;-77
2022/08/05 02:18:34;;;;;;;10.63;5.13;;;;;;;17.66;100.00;101759.97;7390430;19;20022;-79
2022/08/05 02:21:11;;;;;;;10.48;5.15;;;;;;;17.59;100.00;101758.19;7385777;19;20006;-78
2022/08/05 02:23:46;;;;;;;15.75;6.22;;;;;;;17.60;100.00;101752.88;7381531;19;20009;-78
2022/08/05 02:26:27;;;;;;;13.93;5.00;;;;;;;17.64;100.00;101753.75;7393916;19;20061;-79
2022/08/05 02:28:58;;;;;;;10.52;5.15;;;;;;;17.57;100.00;101744.03;7395297;19;20010;-78
2022/08/05 02:31:37;;;;;;;11.05;5.00;;;;;;;17.54;100.00;101750.22;7387935;19;20010;-79
2022/08/05 02:34:12;;;;;;;13.93;4.85;;;;;;;17.50;100.00;101742.25;7394300;19;20013;-76
2022/08/05 02:36:48;;;;;;;9.40;4.32;;;;;;;17.46;100.00;101752.00;7392240;19;20006;-78
2022/08/05 02:39:22;;;;;;;10.57;5.03;;;;;;;17.45;100.00;101744.03;7390781;19;20046;-76
2022/08/05 02:41:55;;;;;;;8.95;4.75;;;;;;;17.45;100.00;101744.03;7394226;19;20011;-78
2022/08/05 02:44:33;;;;;;;13.02;4.95;;;;;;;17.42;100.00;101733.44;7397424;19;20002;-78
2022/08/05 02:47:07;;;;;;;11.07;4.88;;;;;;;17.42;100.00;101736.09;7395622;19;20015;-77
2022/08/05 02:49:41;;;;;;;13.15;5.53;;;;;;;17.36;100.00;101749.34;7402520;19;20011;-77
2022/08/05 02:52:20;;;;;;;9.43;4.70;;;;;;;17.35;100.00;101751.13;7398065;19;20015;-76
2022/08/05 02:55:00;;;;;;;10.50;5.32;;;;;;;17.33;100.00;101759.06;7394293;19;20054;-78
2022/08/05 02:57:36;;;;;;;12.85;5.50;;;;;;;17.35;100.00;101763.47;7392452;19;20021;-79
2022/08/05 03:00:27;;;;;;;9.48;4.90;;;;;;;17.25;100.00;101760.84;7396742;19;20011;-78
2022/08/05 03:03:02;;;;;;;11.43;4.88;;;;;;;17.19;100.00;101762.59;7403231;19;20026;-76
2022/08/05 03:05:41;;;;;;;10.25;4.68;;;;;;;17.18;100.00;101764.34;7402459;19;20050;-77
2022/08/05 03:08:32;;;;;;;7.85;4.22;;;;;;;17.13;100.00;101767.88;7391327;19;20046;-80
2022/08/05 03:11:02;;;;;;;14.82;4.95;;;;;;;17.10;100.00;101773.19;7393182;19;20011;-77
2022/08/05 03:13:54;;;;;;;10.48;4.53;;;;;;;17.05;100.00;101775.81;7396289;19;20017;-80
2022/08/05 03:16:32;;;;;;;11.13;4.97;;;;;;;17.04;100.00;101778.47;7400718;19;20020;-78
2022/08/05 03:19:07;;;;;;;8.00;4.38;;;;;;;17.00;100.00;101773.16;7397847;19;20018;-77
2022/08/05 03:21:57;;;;;;;12.27;4.40;;;;;;;16.90;100.00;101774.03;7391685;19;20006;-79
2022/08/05 03:24:29;;;;;;;9.05;3.95;;;;;;;16.89;100.00;101774.91;7393612;19;20019;-77
2022/08/05 03:27:00;;;;;;;9.18;4.20;;;;;;;16.86;100.00;101776.69;7395492;19;20027;-78
2022/08/05 03:29:31;;;;;;;7.60;4.07;;;;;;;16.81;100.00;101771.38;7394972;19;20010;-73
2022/08/05 03:32:24;;;;;;;13.43;4.97;;;;;;;16.81;100.00;101781.06;7376944;19;20025;-73
2022/08/05 03:35:03;;;;;;;10.77;4.30;;;;;;;16.80;100.00;101774.00;7381160;19;20086;-73
2022/08/05 03:37:36;;;;;;;8.85;4.10;;;;;;;16.80;100.00;101789.91;7376441;19;20443;-72
2022/08/05 03:40:16;;;;;;;11.27;3.85;;;;;;;16.68;100.00;101793.41;7378139;19;20010;-73
2022/08/05 03:43:03;;;;;;;10.50;4.50;;;;;;;16.68;100.00;101793.41;7379682;19;20002;-72
2022/08/05 03:45:55;;;;;;;8.35;4.60;;;;;;;16.64;100.00;101789.84;7380680;19;20106;-77
2022/08/05 03:48:28;;;;;;;8.77;4.53;;;;;;;16.60;100.00;101793.38;7394379;19;20014;-77
2022/08/05 03:51:14;;;;;;;8.63;3.88;;;;;;;16.62;100.00;101788.97;7392151;19;20018;-78
2022/08/05 03:54:10;;;;;;;12.55;4.90;;;;;;;16.57;100.00;101780.13;7390070;19;20570;-79
2022/08/05 03:57:01;;;;;;;9.60;5.10;;;;;;;16.54;100.00;101779.22;7394088;19;20018;-77
2022/08/05 03:59:54;;;;;;;9.00;4.60;;;;;;;16.50;100.00;101791.56;7398031;19;20462;-78
2022/08/05 04:02:28;;;;;;;13.07;5.20;;;;;;;16.46;100.00;101792.44;7394024;19;20414;-77
2022/08/05 04:05:10;;;;;;;10.30;5.13;;;;;;;16.45;100.00;101789.78;7390421;19;20018;-78
2022/08/05 04:07:45;;;;;;;8.75;4.57;;;;;;;16.44;100.00;101780.94;7392440;19;20418;-78
2022/08/05 04:10:29;;;;;;;7.85;4.00;;;;;;;16.40;100.00;101778.28;7391392;19;20011;-77
2022/08/05 04:13:07;;;;;;;8.25;4.15;;;;;;;16.38;100.00;101780.03;7397228;19;20042;-78
2022/08/05 04:15:41;;;;;;;8.50;5.10;;;;;;;16.35;100.00;101779.16;7399391;19;20011;-77
2022/08/05 04:18:31;;;;;;;8.90;4.13;;;;;;;16.36;100.00;101787.97;7396324;19;20015;-77
2022/08/05 04:21:03;;;;;;;11.70;4.32;;;;;;;16.33;100.00;101777.38;7394999;19;20014;-79
2022/08/05 04:23:39;;;;;;;8.68;4.10;;;;;;;16.30;100.00;101778.25;7395588;19;20017;-78
2022/08/05 04:26:30;;;;;;;8.82;4.00;;;;;;;16.25;100.00;101781.75;7399087;19;20035;-77
2022/08/05 04:29:01;;;;;;;10.07;4.05;;;;;;;16.20;100.00;101787.00;7395695;19;20022;-77
2022/08/05 04:31:36;;;;;;;7.45;3.80;;;;;;;16.19;100.00;101776.41;7398956;19;20003;-78
2022/08/05 04:34:09;;;;;;;8.95;4.15;;;;;;;16.13;100.00;101782.56;7397142;19;20521;-77
2022/08/05 04:37:00;;;;;;;12.25;4.40;;;;;;;16.10;100.00;101782.53;7398431;19;20351;-80
2022/08/05 04:39:34;;;;;;;9.63;5.13;;;;;;;16.07;100.00;101784.28;7396211;19;20523;-77
2022/08/05 04:42:05;;;;;;;10.83;4.80;;;;;;;16.05;100.00;101781.63;7397570;19;21951;-78
2022/08/05 04:44:36;;;;;;;9.10;4.53;;;;;;;16.01;100.00;101778.09;7395433;19;20296;-76
2022/08/05 04:47:09;;;;;;;9.85;4.35;;;;;;;16.00;100.00;101778.06;7395564;19;20018;-77
2022/08/05 04:49:45;;;;;;;11.07;4.28;;;;;;;15.99;100.00;101777.19;7393688;19;20006;-78
2022/08/05 04:52:35;;;;;;;9.38;3.85;;;;;;;16.00;100.00;101772.78;7389260;19;20066;-79
2022/08/05 04:55:10;;;;;;;7.97;4.05;;;;;;;16.00;100.00;101768.38;7396038;19;20046;-77
2022/08/05 04:57:47;;;;;;;8.38;4.00;;;;;;;16.03;100.00;101778.09;7397946;19;20014;-79
2022/08/05 05:00:26;;;;;;;8.10;4.03;;;;;;;16.07;100.00;101768.41;7399578;19;20054;-77
2022/08/05 05:02:58;;;;;;;7.53;4.13;;;;;;;16.10;100.00;101776.38;7389940;19;20056;-77
2022/08/05 05:05:33;;;;;;;9.38;4.03;;;;;;;16.10;100.00;101771.06;7391234;19;20462;-80
2022/08/05 05:08:25;;;;;;;11.05;4.30;;;;;;;16.13;100.00;101773.75;7391606;19;20003;-80
2022/08/05 05:11:04;;;;;;;8.43;4.18;;;;;;;16.18;100.00;101775.53;7392494;19;20217;-78
2022/08/05 05:13:36;;;;;;;9.10;4.38;;;;;;;16.21;100.00;101783.50;7392655;19;20010;-78
2022/08/05 05:16:13;;;;;;;9.32;4.47;;;;;;;16.26;100.00;101780.88;7392814;19;20007;-77
2022/08/05 05:18:48;;;;;;;8.43;4.22;;;;;;;16.33;100.00;101780.91;7389159;19;20086;-78
2022/08/05 05:21:38;;;;;;;10.15;4.40;;;;;;;16.46;100.00;101784.50;7385586;19;20362;-77
2022/08/05 05:24:09;;;;;;;9.63;4.43;;;;;;;16.69;100.00;101789.88;7390854;19;20062;-78
2022/08/05 05:26:42;;;;;;;6.70;4.13;;;;;;;16.84;100.00;101796.97;7397365;19;20010;-79
2022/08/05 05:29:15;;;;;;;6.75;4.30;;;;;;;17.00;100.00;101793.50;7394498;19;20003;-78
2022/08/05 05:31:47;;;;;;;12.00;4.60;;;;;;;17.16;100.00;101794.41;7389329;19;20011;-78
2022/08/05 05:34:19;;;;;;;7.57;4.38;;;;;;;17.33;100.00;101790.00;7387840;19;20018;-77
2022/08/05 05:36:56;;;;;;;6.35;3.50;;;;;;;17.51;100.00;101794.44;7388204;19;20464;-77
2022/08/05 05:39:30;;;;;;;7.50;3.83;;;;;;;17.72;100.00;101796.19;7389767;19;20021;-78
2022/08/05 05:42:06;;;;;;;7.47;3.47;;;;;;;17.92;100.00;101789.09;7392995;19;20126;-79
2022/08/05 05:44:36;;;;;;;8.15;3.80;;;;;;;18.07;100.00;101793.47;7393547;19;20010;-76
2022/08/05 05:47:14;;;;;;;7.20;3.40;;;;;;;18.24;100.00;101792.53;7386134;19;20017;-79
2022/08/05 05:49:54;;;;;;;7.68;3.25;;;;;;;18.41;100.00;101800.44;7389222;19;20007;-76
2022/08/05 05:52:31;;;;;;;6.90;3.35;;;;;;;18.47;100.00;101804.84;7389800;19;20034;-80
2022/08/05 05:55:11;;;;;;;6.75;3.42;;;;;;;18.64;100.00;101804.81;7392651;19;20074;-78
2022/08/05 05:57:48;;;;;;;7.53;2.97;;;;;;;18.57;100.00;101804.81;7395728;19;20035;-78
2022/08/05 06:00:23;;;;;;;5.60;2.75;;;;;;;18.91;100.00;101807.31;7394699;19;20035;-77
2022/08/05 06:03:03;;;;;;;6.55;3.15;;;;;;;18.92;100.00;101814.38;7391583;19;20031;-79
2022/08/05 06:05:55;;;;;;;6.22;3.08;;;;;;;18.84;100.00;101811.78;7392920;19;20085;-80
2022/08/05 06:08:26;;;;;;;7.57;3.17;;;;;;;18.83;100.00;101814.44;7385658;19;20031;-76
2022/08/05 06:11:01;;;;;;;7.40;3.10;;;;;;;19.12;100.00;101811.63;7378002;19;20010;-76
2022/08/05 06:13:37;;;;;;;7.32;2.80;;;;;;;19.03;100.00;101812.56;7391182;19;20010;-77
2022/08/05 06:16:19;;;;;;;5.40;2.83;;;;;;;19.15;100.00;101809.81;7396003;19;20121;-78
2022/08/05 06:19:03;;;;;;;5.32;2.63;;;;;;;19.33;100.00;101822.09;7390648;19;20048;-78
2022/08/05 06:21:38;;;;;;;7.07;2.72;;;;;;;19.54;100.00;101824.63;7386566;19;20048;-77
2022/08/05 06:24:20;;;;;;;6.43;2.88;;;;;;;19.60;100.00;101823.69;7375693;19;20018;-77
2022/08/05 06:26:56;;;;;;;4.75;2.60;;;;;;;19.56;100.00;101819.31;7394960;19;20030;-77
2022/08/05 06:29:30;;;;;;;5.93;3.05;;;;;;;19.88;100.00;101830.50;7393559;19;20017;-78
2022/08/05 06:32:32;;;;;;;4.00;2.35;;;;;;;20.04;98.87;101830.38;7396926;19;20075;-80
2022/08/05 06:35:02;;;;;;;6.07;2.50;;;;;;;20.05;99.50;101822.38;7399266;19;20006;-78
2022/08/05 06:37:46;;;;;;;5.72;2.45;;;;;;;20.12;97.48;101825.84;7407259;19;20006;-79
2022/08/05 06:40:28;;;;;;;5.25;2.53;;;;;;;20.47;96.53;101834.38;7412369;19;20269;-81
2022/08/05 06:43:19;;;;;;;4.78;2.25;;;;;;;20.90;95.61;101833.78;7405381;19;20035;-77
2022/08/05 06:46:14;;;;;;;7.82;2.80;;;;;;;20.88;92.75;101839.16;7397408;19;20046;-81
2022/08/05 06:48:50;;;;;;;5.68;2.28;;;;;;;21.18;91.28;101840.50;7388590;19;20381;-76
2022/08/05 06:51:33;;;;;;;6.25;2.47;;;;;;;21.43;91.48;101829.50;7401887;19;20015;-78
2022/08/05 06:54:09;;;;;;;4.70;2.20;;;;;;;21.24;92.43;101839.56;7405293;19;20042;-74
2022/08/05 06:56:48;;;;;;;6.88;2.33;;;;;;;21.27;90.13;101838.63;7398603;19;20070;-77
2022/08/05 06:59:40;;;;;;;5.53;2.30;;;;;;;21.56;87.66;101839.06;7397749;19;20030;-78
2022/08/05 07:02:31;;;;;;;4.28;2.20;;;;;;;21.63;86.70;101838.06;7391311;19;20027;-77
2022/08/05 07:05:07;;;;;;;4.63;2.20;;;;;;;21.59;85.93;101848.81;7382648;19;20078;-74
2022/08/05 07:07:47;;;;;;;5.43;2.10;;;;;;;20.90;85.58;101858.66;7373292;19;20898;-74
2022/08/05 07:10:24;;;;;;;4.53;2.30;;;;;;;21.15;85.39;101856.56;7376489;19;20014;-73
2022/08/05 07:19:13;;;;;;;2.92;2.00;;;;;;;22.08;78.50;101860.41;7374147;19;20336;-74
2022/08/05 07:22:03;;;;;;;4.70;2.28;;;;;;;22.07;77.39;101866.66;7376973;19;20014;-73
2022/08/05 07:24:39;;;;;;;5.22;2.15;;;;;;;21.67;77.96;101863.78;7372101;19;20014;-74
2022/08/05 07:27:21;;;;;;;4.88;2.10;;;;;;;21.70;80.88;101877.09;7372934;19;20623;-74
2022/08/05 07:29:59;;;;;;;5.85;2.22;;;;;;;21.83;80.35;101880.44;7371231;19;20006;-74
2022/08/05 07:32:49;;;;;;;4.90;2.10;;;;;;;21.71;80.62;101884.19;7371910;19;20007;-73
2022/08/05 07:35:25;;;;;;;5.65;2.05;;;;;;;21.75;80.89;101893.03;7377878;19;20556;-74
2022/08/05 07:38:15;;;;;;;2.72;1.73;;;;;;;20.88;83.64;101888.94;7374663;19;20020;-70
2022/08/05 07:41:03;;;;;;;3.80;2.20;;;;;;;21.04;81.35;101901.16;7372335;19;20011;-72
2022/08/05 07:43:54;;;;;;;3.38;1.75;;;;;;;21.01;76.88;101900.31;7384247;19;20641;-75
2022/08/05 07:46:26;;;;;;;4.93;2.00;;;;;;;20.96;77.11;101905.72;7396467;19;20010;-77
2022/08/05 07:48:59;;;;;;;1.88;1.75;;;;;;;21.02;75.84;101904.75;7391604;19;20007;-76
2022/08/05 07:51:40;;;;;;;2.33;1.63;;;;;;;21.09;76.32;101920.66;7376344;19;20153;-73
2022/08/05 07:54:25;;;;;;;2.03;1.83;;;;;;;20.58;78.63;101931.97;7371005;19;20010;-74
2022/08/05 07:57:02;;;;;;;7.20;2.08;;;;;;;20.51;79.73;101926.69;7375424;19;20018;-73
2022/08/05 07:59:54;;;;;;;3.88;1.70;;;;;;;20.11;82.34;101938.59;7375445;19;20102;-74
2022/08/05 08:02:27;;;;;;;3.72;1.92;;;;;;;20.41;82.38;101941.03;7371936;19;20117;-72
2022/08/05 08:05:18;;;;;;;5.72;1.80;;;;;;;20.24;83.68;101943.81;7379144;19;20137;-75
2022/08/05 08:07:54;;;;;;;5.97;1.88;;;;;;;20.07;85.85;101937.75;7383451;19;20018;-75
2022/08/05 08:10:29;;;;;;;5.80;1.63;;;;;;;19.91;86.50;101958.28;7381290;19;20014;-75
2022/08/05 08:13:03;;;;;;;4.95;1.95;;;;;;;19.63;88.51;101955.84;7378407;19;20011;-75
2022/08/05 08:15:34;;;;;;;3.38;1.92;;;;;;;19.30;90.73;101967.53;7384515;19;20021;-74
2022/08/05 08:18:24;;;;;;;6.18;1.90;;;;;;;19.46;89.34;101966.56;7382140;19;20052;-77
2022/08/05 08:20:57;;;;;;;4.28;1.90;;;;;;;19.45;90.04;101964.78;7383387;19;20021;-74
2022/08/05 08:23:35;;;;;;;10.23;2.60;;;;;;;19.49;90.52;101964.78;7379940;19;20082;-74
2022/08/05 08:26:28;;;;;;;5.38;1.90;;;;;;;19.35;89.74;101969.28;7377660;19;20048;-76
2022/08/05 08:29:01;;;;;;;2.83;1.90;;;;;;;19.24;86.83;101969.31;7371280;19;20007;-74
2022/08/05 08:31:55;;;;;;;3.58;1.63;;;;;;;19.32;86.86;101974.63;7377143;19;20014;-73
2022/08/05 08:34:28;;;;;;;4.53;1.70;;;;;;;19.27;86.39;101979.06;7374764;19;20008;-74
2022/08/05 08:37:08;;;;;;;4.15;1.80;;;;;;;19.12;86.94;101979.13;7377669;19;20094;-75
2022/08/05 08:39:41;;;;;;;4.40;1.95;;;;;;;19.03;88.65;101981.81;7375326;19;20014;-75
2022/08/05 08:42:24;;;;;;;4.60;2.08;;;;;;;19.01;90.19;101981.84;7378560;19;20827;-76
2022/08/05 08:45:26;;;;;;;4.95;1.85;;;;;;;19.03;89.28;101996.00;7375701;19;20013;-75
2022/08/05 08:51:32;;;;;;;5.55;1.60;;;;;;;18.66;89.44;102013.84;7380829;19;20064;-75
2022/08/05 08:54:30;;;;;;;5.30;1.63;;;;;;;18.63;89.07;102012.97;7371477;19;20006;-76
2022/08/05 08:57:28;;;;;;;5.28;1.75;;;;;;;18.61;89.74;102011.19;7377261;19;20506;-76
2022/08/05 09:06:16;;;;;;;1.63;1.52;;;;;;;18.69;89.11;102023.59;7386828;19;20007;-76
2022/08/05 09:08:57;;;;;;;4.70;1.60;;;;;;;18.65;88.30;102038.66;7384038;19;20009;-76
2022/08/05 09:11:28;;;;;;;6.45;1.83;;;;;;;18.57;88.20;102041.28;7379153;19;20356;-75
2022/08/05 09:14:27;;;;;;;2.30;1.38;;;;;;;18.55;86.62;102043.03;7378213;19;20014;-74
2022/08/05 09:17:21;;;;;;;4.40;1.70;;;;;;;18.71;86.19;102037.75;7377529;19;20010;-75
2022/08/05 09:20:27;;;;;;;3.22;1.50;;;;;;;18.78;86.37;102031.50;7377858;19;20036;-73
2022/08/05 09:23:24;;;;;;;3.45;1.50;;;;;;;18.90;85.65;102045.66;7377258;19;20454;-75
2022/08/05 09:26:09;;;;;;;2.55;1.38;;;;;;;18.88;84.53;102042.13;7378658;19;20103;-78
2022/08/05 09:28:49;;;;;;;6.82;1.52;;;;;;;18.78;84.25;102044.78;7384932;19;20438;-76
2022/08/05 09:31:29;;;;;;;5.03;1.90;;;;;;;18.76;83.98;102052.78;7382332;19;20039;-75
2022/08/05 09:34:47;;;;;;;4.45;1.83;;;;;;;18.77;83.65;102056.31;7369364;19;20020;-76
2022/08/05 09:37:24;;;;;;;5.72;1.63;;;;;;;18.84;84.59;102050.09;7373509;19;20010;-74
2022/08/05 09:40:32;;;;;;;4.45;1.60;;;;;;;18.78;83.79;102060.75;7373864;19;20439;-76
2022/08/05 09:43:05;;;;;;;4.07;1.90;;;;;;;18.77;83.93;102066.94;7371969;19;20037;-76
2022/08/05 09:45:39;;;;;;;4.68;1.45;;;;;;;18.74;83.82;102074.91;7369505;19;20086;-78
2022/08/05 09:48:45;;;;;;;3.25;1.45;;;;;;;18.61;84.17;102072.31;7370590;19;20052;-76
2022/08/05 09:51:37;;;;;;;2.63;1.60;;;;;;;18.82;84.06;102075.78;7371241;19;20021;-75
2022/08/05 09:54:10;;;;;;;4.40;1.60;;;;;;;18.87;83.56;102087.31;7373863;19;20006;-76
2022/08/05 09:56:45;;;;;;;3.03;1.52;;;;;;;18.77;81.86;102078.47;7373520;19;20361;-73
2022/08/05 09:59:20;;;;;;;2.00;1.50;;;;;;;18.83;81.86;102080.22;7373668;19;20027;-76
2022/08/05 10:01:51;;;;;;;3.38;1.30;;;;;;;18.84;83.14;102089.97;7371061;19;20017;-73
2022/08/05 10:04:38;;;;;;;1.40;1.23;;;;;;;18.80;83.30;102096.19;7372096;19;20056;-77
2022/08/05 10:07:09;;;;;;;4.10;1.40;;;;;;;18.79;84.80;102089.97;7373360;19;20074;-74
2022/08/05 10:09:57;;;;;;;3.50;1.42;;;;;;;18.76;84.64;102097.06;7370867;19;20019;-76
2022/08/05 10:12:50;;;;;;;6.13;1.60;;;;;;;18.77;84.08;102104.16;7373351;19;20048;-75
2022/08/05 10:15:24;;;;;;;2.97;1.40;;;;;;;18.81;84.90;102097.94;7373883;19;20013;-78
2022/08/05 10:18:09;;;;;;;7.10;2.08;;;;;;;18.91;83.96;102105.03;7373313;19;20010;-77
2022/08/05 10:20:46;;;;;;;2.83;2.10;;;;;;;18.90;72.89;102097.94;7372944;19;20021;-74
2022/08/05 10:23:20;;;;;;;1.60;1.15;;;;;;;18.82;66.69;102094.41;7369143;19;20341;-75
2022/08/05 10:26:12;;;;;;;2.30;1.37;;;;;;;18.94;67.68;102094.38;7366230;19;20466;-75
2022/08/05 10:28:45;;;;;;;2.03;1.40;;;;;;;19.00;68.60;102094.38;7370453;19;20271;-76
2022/08/05 10:31:17;;;;;;;2.33;1.40;;;;;;;19.04;69.48;102095.25;7371888;19;20025;-75
2022/08/05 10:34:08;;;;;;;5.32;1.73;;;;;;;18.99;65.99;102105.91;7371766;19;20022;-74
2022/08/05 10:36:43;;;;;;;3.95;1.35;;;;;;;19.04;65.90;102101.47;7370922;19;20035;-77
2022/08/05 10:39:19;;;;;;;2.30;1.48;;;;;;;19.04;67.24;102097.91;7374048;19;20025;-77
2022/08/05 10:42:02;;;;;;;1.92;1.40;;;;;;;19.13;66.85;102098.78;7374233;19;20040;-75
2022/08/05 10:44:34;;;;;;;3.35;1.90;;;;;;;19.35;65.69;102096.06;7377030;19;20359;-75
2022/08/05 10:47:15;;;;;;;2.38;1.50;;;;;;;19.45;65.08;102097.81;7376687;19;20014;-79
2022/08/05 10:50:10;;;;;;;3.60;1.70;;;;;;;19.72;65.82;102105.72;7379840;19;20017;-77
2022/08/05 10:53:04;;;;;;;2.70;1.50;;;;;;;19.67;64.85;102112.84;7374065;19;20022;-75
2022/08/05 10:55:34;;;;;;;3.80;1.40;;;;;;;19.64;66.76;102107.53;7377862;19;20046;-76
2022/08/05 10:58:24;;;;;;;2.67;1.70;;;;;;;19.89;64.89;102114.50;7370502;19;20011;-74
2022/08/05 11:01:15;;;;;;;9.10;2.10;;;;;;;19.89;64.65;102119.81;7376070;19;20010;-75
2022/08/05 11:04:11;;;;;;;5.85;1.80;;;;;;;19.97;66.17;102119.78;7376849;19;20021;-77
2022/08/05 11:07:06;;;;;;;5.28;1.50;;;;;;;20.19;66.30;102131.19;7376541;19;20102;-76
2022/08/05 11:09:46;;;;;;;4.70;1.40;;;;;;;20.49;65.21;102125.69;7382352;19;20118;-75
2022/08/05 11:12:47;;;;;;;3.53;1.40;;;;;;;20.57;65.39;102130.97;7382654;19;20018;-75
2022/08/05 11:15:29;;;;;;;3.08;1.50;;;;;;;20.96;65.57;102135.06;7389842;19;20101;-77
2022/08/05 11:18:28;;;;;;;4.80;1.83;;;;;;;21.13;67.23;102129.56;7392051;19;20023;-77
2022/08/05 11:21:04;;;;;;;4.75;1.63;;;;;;;21.30;63.73;102135.66;7395036;19;20405;-76
2022/08/05 11:23:45;;;;;;;3.75;1.60;;;;;;;20.84;62.79;102137.84;7395287;19;20031;-77
2022/08/05 11:26:38;;;;;;;4.05;1.77;;;;;;;20.65;61.71;102133.59;7388654;19;20061;-77
2022/08/05 11:29:41;;;;;;;4.90;1.52;;;;;;;20.75;62.09;102143.28;7389197;19;20014;-77
2022/08/05 11:32:28;;;;;;;6.00;1.42;;;;;;;21.32;62.66;102139.19;7389400;19;20007;-75
2022/08/05 11:34:59;;;;;;;3.97;1.92;;;;;;;21.05;63.02;102144.75;7396862;19;19999;-77
2022/08/05 11:38:02;;;;;;;2.85;1.30;;;;;;;20.85;67.14;102148.50;7392453;19;20014;-77
2022/08/05 11:41:02;;;;;;;2.80;1.60;;;;;;;20.97;69.53;102159.94;7379718;19;20025;-77
2022/08/05 11:43:59;;;;;;;2.97;1.42;;;;;;;21.18;67.16;102155.31;7383258;19;20513;-75
2022/08/05 11:46:42;;;;;;;4.30;1.40;;;;;;;20.98;66.68;102162.59;7378513;19;20011;-74
2022/08/05 11:49:35;;;;;;;2.60;1.55;;;;;;;20.98;65.05;102161.72;7390073;19;20037;-77
2022/08/05 11:52:05;;;;;;;4.55;1.50;;;;;;;21.21;64.84;102173.06;7396133;19;20014;-79
2022/08/05 11:54:40;;;;;;;5.93;1.55;;;;;;;21.13;66.60;102161.59;7402561;19;20044;-79
2022/08/05 11:57:17;;;;;;;2.30;1.63;;;;;;;20.83;64.71;102173.41;7408706;19;20034;-78
2022/08/05 12:00:29;;;;;;;4.43;1.40;;;;;;;21.72;59.52;102168.09;7393374;19;20114;-77
2022/08/05 12:03:17;;;;;;;2.55;1.25;;;;;;;21.27;58.09;102169.50;7389541;19;20043;-76
2022/08/05 12:06:01;;;;;;;3.13;1.23;;;;;;;21.95;58.98;102170.47;7392194;19;20044;-77
2022/08/05 12:08:32;;;;;;;2.22;1.50;;;;;;;21.80;57.13;102167.13;7397342;19;20018;-79
2022/08/05 12:11:05;;;;;;;2.45;1.20;;;;;;;22.27;53.71;102176.31;7385787;19;20046;-77
2022/08/05 12:13:36;;;;;;;2.05;1.35;;;;;;;22.43;51.26;102177.84;7379152;19;20006;-77
2022/08/05 12:16:28;;;;;;;4.45;1.63;;;;;;;22.16;51.95;102178.25;7376644;19;20612;-75
2022/08/05 12:19:01;;;;;;;2.58;1.48;;;;;;;22.23;52.70;102181.72;7389994;19;20454;-77
2022/08/05 12:21:45;;;;;;;2.28;1.08;;;;;;;22.35;48.54;102187.75;7401448;19;20014;-79
2022/08/05 12:24:19;;;;;;;2.70;2.10;;;;;;;22.76;47.34;102195.16;7387313;19;20006;-79
2022/08/05 12:26:55;;;;;;;1.48;1.38;;;;;;;22.66;48.04;102198.91;7388532;19;20013;-77
2022/08/05 12:29:31;;;;;;;5.10;1.52;;;;;;;23.30;49.12;102191.59;7386763;19;20018;-76
2022/08/05 12:32:08;;;;;;;2.25;1.30;;;;;;;23.04;50.82;102194.72;7384935;19;20006;-75
2022/08/05 12:34:44;;;;;;;;;;;;;;;23.39;51.44;102183.41;7377272;19;20035;-75
2022/08/05 12:37:19;;;;;;;4.68;1.35;;;;;;;22.15;54.45;102205.84;7371725;19;19939;-75